sensor_id;sensor_type;location;lat;lon;timestamp;P1;durP1;ratioP1;P2;durP2;ratioP2
58685;SDS011;44465;53.206;-6.106;2023-03-14T00:02:06;6.25;;;1.45;;
58685;SDS011;44465;53.206;-6.106;2023-03-14T00:04:31;5.95;;;1.40;;
58685;SDS011;44465;53.206;-6.106;2023-03-14T00:06:57;5.50;;;1.65;;
58685;SDS011;44465;53.206;-6.106;2023-03-14T00:09:23;2.92;;;1.13;;
58685;SDS011;44465;53.206;-6.106;2023-03-14T00:11:48;2.88;;;1.27;;
58685;SDS011;44465;53.206;-6.106;2023-03-14T00:14:14;7.30;;;2.30;;
58685;SDS011;44465;53.206;-6.106;2023-03-14T00:16:40;2.22;;;1.00;;
58685;SDS011;44465;53.206;-6.106;2023-03-14T00:19:06;5.85;;;1.50;;
58685;SDS011;44465;53.206;-6.106;2023-03-14T00:21:33;2.00;;;1.27;;
58685;SDS011;44465;53.206;-6.106;2023-03-14T00:23:59;3.95;;;1.05;;
58685;SDS011;44465;53.206;-6.106;2023-03-14T00:26:24;3.33;;;0.80;;
58685;SDS011;44465;53.206;-6.106;2023-03-14T00:28:53;2.58;;;1.02;;
58685;SDS011;44465;53.206;-6.106;2023-03-14T00:31:19;7.28;;;1.35;;
58685;SDS011;44465;53.206;-6.106;2023-03-14T00:33:45;3.25;;;1.40;;
58685;SDS011;44465;53.206;-6.106;2023-03-14T00:36:17;4.20;;;1.23;;
58685;SDS011;44465;53.206;-6.106;2023-03-14T00:38:44;3.58;;;1.67;;
58685;SDS011;44465;53.206;-6.106;2023-03-14T00:41:12;3.63;;;1.27;;
58685;SDS011;44465;53.206;-6.106;2023-03-14T00:43:47;2.10;;;1.00;;
58685;SDS011;44465;53.206;-6.106;2023-03-14T00:46:13;2.90;;;1.20;;
58685;SDS011;44465;53.206;-6.106;2023-03-14T00:48:38;3.35;;;1.05;;
58685;SDS011;44465;53.206;-6.106;2023-03-14T00:51:05;2.40;;;0.90;;
58685;SDS011;44465;53.206;-6.106;2023-03-14T00:53:34;4.93;;;1.20;;
58685;SDS011;44465;53.206;-6.106;2023-03-14T00:56:03;2.67;;;1.42;;
58685;SDS011;44465;53.206;-6.106;2023-03-14T00:58:29;2.22;;;1.00;;
58685;SDS011;44465;53.206;-6.106;2023-03-14T01:00:55;2.63;;;1.00;;
58685;SDS011;44465;53.206;-6.106;2023-03-14T01:03:21;2.25;;;1.25;;
58685;SDS011;44465;53.206;-6.106;2023-03-14T01:05:48;6.18;;;0.80;;
58685;SDS011;44465;53.206;-6.106;2023-03-14T01:08:14;2.13;;;1.35;;
58685;SDS011;44465;53.206;-6.106;2023-03-14T01:10:40;4.32;;;1.05;;
58685;SDS011;44465;53.206;-6.106;2023-03-14T01:13:06;3.05;;;1.00;;
58685;SDS011;44465;53.206;-6.106;2023-03-14T01:15:35;3.05;;;1.00;;
58685;SDS011;44465;53.206;-6.106;2023-03-14T01:18:02;4.35;;;0.98;;
58685;SDS011;44465;53.206;-6.106;2023-03-14T01:20:28;0.80;;;0.80;;
58685;SDS011;44465;53.206;-6.106;2023-03-14T01:22:54;1.08;;;0.80;;
58685;SDS011;44465;53.206;-6.106;2023-03-14T01:25:19;2.90;;;0.80;;
58685;SDS011;44465;53.206;-6.106;2023-03-14T01:27:45;2.28;;;0.93;;
58685;SDS011;44465;53.206;-6.106;2023-03-14T01:30:12;2.47;;;1.23;;
58685;SDS011;44465;53.206;-6.106;2023-03-14T01:32:38;2.27;;;0.90;;
58685;SDS011;44465;53.206;-6.106;2023-03-14T01:35:04;1.45;;;0.80;;
58685;SDS011;44465;53.206;-6.106;2023-03-14T01:37:31;1.75;;;0.93;;
58685;SDS011;44465;53.206;-6.106;2023-03-14T01:39:56;1.08;;;0.90;;
58685;SDS011;44465;53.206;-6.106;2023-03-14T01:42:22;0.93;;;0.73;;
58685;SDS011;44465;53.206;-6.106;2023-03-14T01:47:25;3.08;;;1.33;;
58685;SDS011;44465;53.206;-6.106;2023-03-14T01:49:55;1.20;;;0.75;;
58685;SDS011;44465;53.206;-6.106;2023-03-14T01:52:23;1.23;;;0.80;;
58685;SDS011;44465;53.206;-6.106;2023-03-14T01:54:54;1.58;;;0.63;;
58685;SDS011;44465;53.206;-6.106;2023-03-14T01:57:25;2.00;;;0.90;;
58685;SDS011;44465;53.206;-6.106;2023-03-14T01:59:57;1.80;;;1.10;;
58685;SDS011;44465;53.206;-6.106;2023-03-14T02:02:26;1.02;;;0.70;;
58685;SDS011;44465;53.206;-6.106;2023-03-14T02:04:54;0.90;;;0.60;;
58685;SDS011;44465;53.206;-6.106;2023-03-14T02:07:30;2.50;;;0.98;;
58685;SDS011;44465;53.206;-6.106;2023-03-14T02:10:12;1.23;;;0.70;;
58685;SDS011;44465;53.206;-6.106;2023-03-14T02:12:37;0.85;;;0.85;;
58685;SDS011;44465;53.206;-6.106;2023-03-14T02:15:12;1.20;;;0.70;;
58685;SDS011;44465;53.206;-6.106;2023-03-14T02:18:01;1.48;;;0.75;;
58685;SDS011;44465;53.206;-6.106;2023-03-14T02:27:06;0.95;;;0.50;;
58685;SDS011;44465;53.206;-6.106;2023-03-14T02:29:47;0.70;;;0.60;;
58685;SDS011;44465;53.206;-6.106;2023-03-14T02:32:16;3.03;;;0.73;;
58685;SDS011;44465;53.206;-6.106;2023-03-14T02:34:45;1.23;;;0.80;;
58685;SDS011;44465;53.206;-6.106;2023-03-14T02:37:14;0.82;;;0.77;;
58685;SDS011;44465;53.206;-6.106;2023-03-14T02:39:44;0.65;;;0.50;;
58685;SDS011;44465;53.206;-6.106;2023-03-14T02:42:12;1.10;;;0.65;;
58685;SDS011;44465;53.206;-6.106;2023-03-14T02:44:48;1.83;;;0.80;;
58685;SDS011;44465;53.206;-6.106;2023-03-14T02:47:18;2.13;;;0.75;;
58685;SDS011;44465;53.206;-6.106;2023-03-14T02:49:47;1.30;;;0.73;;
58685;SDS011;44465;53.206;-6.106;2023-03-14T02:52:13;1.45;;;0.47;;
58685;SDS011;44465;53.206;-6.106;2023-03-14T02:54:39;1.85;;;1.15;;
58685;SDS011;44465;53.206;-6.106;2023-03-14T02:57:04;1.20;;;0.70;;
58685;SDS011;44465;53.206;-6.106;2023-03-14T02:59:33;0.85;;;0.60;;
58685;SDS011;44465;53.206;-6.106;2023-03-14T03:02:06;1.80;;;0.75;;
58685;SDS011;44465;53.206;-6.106;2023-03-14T03:04:31;0.65;;;0.60;;
58685;SDS011;44465;53.206;-6.106;2023-03-14T03:06:57;1.05;;;0.60;;
58685;SDS011;44465;53.206;-6.106;2023-03-14T03:09:23;2.47;;;0.75;;
58685;SDS011;44465;53.206;-6.106;2023-03-14T03:11:50;1.80;;;0.68;;
58685;SDS011;44465;53.206;-6.106;2023-03-14T03:14:20;0.82;;;0.60;;
58685;SDS011;44465;53.206;-6.106;2023-03-14T03:16:45;0.50;;;0.50;;
58685;SDS011;44465;53.206;-6.106;2023-03-14T03:19:11;1.33;;;0.50;;
58685;SDS011;44465;53.206;-6.106;2023-03-14T03:21:38;0.50;;;0.40;;
58685;SDS011;44465;53.206;-6.106;2023-03-14T03:24:04;2.00;;;0.68;;
58685;SDS011;44465;53.206;-6.106;2023-03-14T03:26:33;0.50;;;0.50;;
58685;SDS011;44465;53.206;-6.106;2023-03-14T03:29:03;1.35;;;0.90;;
58685;SDS011;44465;53.206;-6.106;2023-03-14T03:31:30;0.90;;;0.60;;
58685;SDS011;44465;53.206;-6.106;2023-03-14T03:33:56;0.73;;;0.60;;
58685;SDS011;44465;53.206;-6.106;2023-03-14T03:36:24;0.73;;;0.73;;
58685;SDS011;44465;53.206;-6.106;2023-03-14T03:38:51;0.45;;;0.40;;
58685;SDS011;44465;53.206;-6.106;2023-03-14T03:41:17;0.45;;;0.43;;
58685;SDS011;44465;53.206;-6.106;2023-03-14T03:43:43;0.93;;;0.70;;
58685;SDS011;44465;53.206;-6.106;2023-03-14T03:46:11;0.50;;;0.50;;
58685;SDS011;44465;53.206;-6.106;2023-03-14T03:48:37;0.60;;;0.30;;
58685;SDS011;44465;53.206;-6.106;2023-03-14T03:53:30;0.60;;;0.50;;
58685;SDS011;44465;53.206;-6.106;2023-03-14T03:55:56;0.40;;;0.40;;
58685;SDS011;44465;53.206;-6.106;2023-03-14T03:58:22;0.50;;;0.50;;
58685;SDS011;44465;53.206;-6.106;2023-03-14T04:00:47;0.77;;;0.50;;
58685;SDS011;44465;53.206;-6.106;2023-03-14T04:03:13;0.38;;;0.38;;
58685;SDS011;44465;53.206;-6.106;2023-03-14T04:05:38;0.73;;;0.55;;
58685;SDS011;44465;53.206;-6.106;2023-03-14T04:08:11;0.55;;;0.55;;
58685;SDS011;44465;53.206;-6.106;2023-03-14T04:10:37;1.23;;;0.57;;
58685;SDS011;44465;53.206;-6.106;2023-03-14T04:13:12;0.30;;;0.30;;
58685;SDS011;44465;53.206;-6.106;2023-03-14T04:15:39;1.33;;;0.75;;
58685;SDS011;44465;53.206;-6.106;2023-03-14T04:18:14;0.40;;;0.40;;
58685;SDS011;44465;53.206;-6.106;2023-03-14T04:20:41;0.60;;;0.40;;
58685;SDS011;44465;53.206;-6.106;2023-03-14T04:23:06;0.45;;;0.40;;
58685;SDS011;44465;53.206;-6.106;2023-03-14T04:25:32;0.30;;;0.30;;
58685;SDS011;44465;53.206;-6.106;2023-03-14T04:28:01;1.20;;;0.40;;
58685;SDS011;44465;53.206;-6.106;2023-03-14T04:30:31;0.40;;;0.30;;
58685;SDS011;44465;53.206;-6.106;2023-03-14T04:33:00;0.47;;;0.47;;
58685;SDS011;44465;53.206;-6.106;2023-03-14T04:35:32;0.93;;;0.55;;
58685;SDS011;44465;53.206;-6.106;2023-03-14T04:38:03;0.40;;;0.40;;
58685;SDS011;44465;53.206;-6.106;2023-03-14T04:40:30;1.10;;;0.75;;
58685;SDS011;44465;53.206;-6.106;2023-03-14T04:43:00;0.52;;;0.30;;
58685;SDS011;44465;53.206;-6.106;2023-03-14T04:45:26;0.60;;;0.60;;
58685;SDS011;44465;53.206;-6.106;2023-03-14T04:47:53;0.52;;;0.45;;
58685;SDS011;44465;53.206;-6.106;2023-03-14T04:50:19;1.35;;;0.50;;
58685;SDS011;44465;53.206;-6.106;2023-03-14T04:52:48;0.77;;;0.40;;
58685;SDS011;44465;53.206;-6.106;2023-03-14T04:55:14;0.63;;;0.40;;
58685;SDS011;44465;53.206;-6.106;2023-03-14T04:57:43;0.50;;;0.50;;
58685;SDS011;44465;53.206;-6.106;2023-03-14T05:00:09;1.80;;;0.65;;
58685;SDS011;44465;53.206;-6.106;2023-03-14T05:02:52;1.67;;;0.40;;
58685;SDS011;44465;53.206;-6.106;2023-03-14T05:05:25;0.98;;;0.50;;
58685;SDS011;44465;53.206;-6.106;2023-03-14T05:08:29;0.30;;;0.30;;
58685;SDS011;44465;53.206;-6.106;2023-03-14T05:11:13;0.40;;;0.40;;
58685;SDS011;44465;53.206;-6.106;2023-03-14T05:14:03;0.30;;;0.30;;
58685;SDS011;44465;53.206;-6.106;2023-03-14T05:16:41;0.32;;;0.32;;
58685;SDS011;44465;53.206;-6.106;2023-03-14T05:19:19;0.63;;;0.30;;
58685;SDS011;44465;53.206;-6.106;2023-03-14T05:22:04;0.55;;;0.50;;
58685;SDS011;44465;53.206;-6.106;2023-03-14T05:24:29;0.40;;;0.40;;
58685;SDS011;44465;53.206;-6.106;2023-03-14T05:27:06;0.65;;;0.30;;
58685;SDS011;44465;53.206;-6.106;2023-03-14T05:29:58;0.88;;;0.60;;
58685;SDS011;44465;53.206;-6.106;2023-03-14T05:32:40;2.15;;;0.57;;
58685;SDS011;44465;53.206;-6.106;2023-03-14T05:35:06;0.40;;;0.40;;
58685;SDS011;44465;53.206;-6.106;2023-03-14T05:37:55;1.00;;;0.73;;
58685;SDS011;44465;53.206;-6.106;2023-03-14T05:40:34;0.82;;;0.40;;
58685;SDS011;44465;53.206;-6.106;2023-03-14T05:43:09;1.67;;;0.30;;
58685;SDS011;44465;53.206;-6.106;2023-03-14T05:45:35;0.95;;;0.50;;
58685;SDS011;44465;53.206;-6.106;2023-03-14T05:48:19;0.40;;;0.40;;
58685;SDS011;44465;53.206;-6.106;2023-03-14T05:51:10;1.20;;;0.50;;
58685;SDS011;44465;53.206;-6.106;2023-03-14T05:53:56;1.75;;;0.77;;
58685;SDS011;44465;53.206;-6.106;2023-03-14T05:56:40;0.40;;;0.40;;
58685;SDS011;44465;53.206;-6.106;2023-03-14T05:59:24;1.38;;;0.60;;
58685;SDS011;44465;53.206;-6.106;2023-03-14T06:02:08;0.60;;;0.45;;
58685;SDS011;44465;53.206;-6.106;2023-03-14T06:04:45;0.37;;;0.37;;
58685;SDS011;44465;53.206;-6.106;2023-03-14T06:07:11;0.20;;;0.20;;
58685;SDS011;44465;53.206;-6.106;2023-03-14T06:09:36;0.40;;;0.40;;
58685;SDS011;44465;53.206;-6.106;2023-03-14T06:12:03;0.68;;;0.50;;
58685;SDS011;44465;53.206;-6.106;2023-03-14T06:14:34;0.68;;;0.60;;
58685;SDS011;44465;53.206;-6.106;2023-03-14T06:17:00;1.40;;;0.50;;
58685;SDS011;44465;53.206;-6.106;2023-03-14T06:19:28;0.75;;;0.40;;
58685;SDS011;44465;53.206;-6.106;2023-03-14T06:21:54;0.70;;;0.40;;
58685;SDS011;44465;53.206;-6.106;2023-03-14T06:24:21;1.48;;;0.60;;
58685;SDS011;44465;53.206;-6.106;2023-03-14T06:26:49;0.40;;;0.40;;
58685;SDS011;44465;53.206;-6.106;2023-03-14T06:29:15;1.13;;;0.50;;
58685;SDS011;44465;53.206;-6.106;2023-03-14T06:31:41;1.52;;;0.60;;
58685;SDS011;44465;53.206;-6.106;2023-03-14T06:34:07;0.43;;;0.30;;
58685;SDS011;44465;53.206;-6.106;2023-03-14T06:36:33;0.52;;;0.40;;
58685;SDS011;44465;53.206;-6.106;2023-03-14T06:38:59;0.65;;;0.40;;
58685;SDS011;44465;53.206;-6.106;2023-03-14T06:41:26;1.15;;;0.40;;
58685;SDS011;44465;53.206;-6.106;2023-03-14T06:43:52;1.15;;;0.68;;
58685;SDS011;44465;53.206;-6.106;2023-03-14T06:46:19;0.55;;;0.55;;
58685;SDS011;44465;53.206;-6.106;2023-03-14T06:48:44;1.17;;;0.60;;
58685;SDS011;44465;53.206;-6.106;2023-03-14T06:51:11;1.05;;;0.50;;
58685;SDS011;44465;53.206;-6.106;2023-03-14T06:53:40;0.82;;;0.45;;
58685;SDS011;44465;53.206;-6.106;2023-03-14T06:56:06;1.27;;;0.60;;
58685;SDS011;44465;53.206;-6.106;2023-03-14T06:58:33;1.63;;;0.50;;
58685;SDS011;44465;53.206;-6.106;2023-03-14T07:00:59;0.82;;;0.73;;
58685;SDS011;44465;53.206;-6.106;2023-03-14T07:03:31;2.20;;;0.60;;
58685;SDS011;44465;53.206;-6.106;2023-03-14T07:05:58;1.10;;;0.50;;
58685;SDS011;44465;53.206;-6.106;2023-03-14T07:08:24;0.75;;;0.60;;
58685;SDS011;44465;53.206;-6.106;2023-03-14T07:10:55;1.30;;;0.60;;
58685;SDS011;44465;53.206;-6.106;2023-03-14T07:13:21;0.90;;;0.60;;
58685;SDS011;44465;53.206;-6.106;2023-03-14T07:16:07;3.60;;;0.75;;
58685;SDS011;44465;53.206;-6.106;2023-03-14T07:18:35;3.75;;;0.60;;
58685;SDS011;44465;53.206;-6.106;2023-03-14T07:21:03;1.02;;;0.60;;
58685;SDS011;44465;53.206;-6.106;2023-03-14T07:23:30;1.65;;;0.50;;
58685;SDS011;44465;53.206;-6.106;2023-03-14T07:25:56;1.55;;;0.60;;
58685;SDS011;44465;53.206;-6.106;2023-03-14T07:28:24;1.63;;;0.50;;
58685;SDS011;44465;53.206;-6.106;2023-03-14T07:31:08;0.80;;;0.50;;
58685;SDS011;44465;53.206;-6.106;2023-03-14T07:33:34;3.60;;;1.25;;
58685;SDS011;44465;53.206;-6.106;2023-03-14T07:36:01;2.25;;;0.65;;
58685;SDS011;44465;53.206;-6.106;2023-03-14T07:38:27;0.80;;;0.60;;
58685;SDS011;44465;53.206;-6.106;2023-03-14T07:41:18;2.30;;;0.90;;
58685;SDS011;44465;53.206;-6.106;2023-03-14T07:44:16;2.78;;;0.65;;
58685;SDS011;44465;53.206;-6.106;2023-03-14T07:46:44;2.33;;;0.70;;
58685;SDS011;44465;53.206;-6.106;2023-03-14T07:49:10;1.63;;;1.20;;
58685;SDS011;44465;53.206;-6.106;2023-03-14T07:51:35;1.02;;;0.80;;
58685;SDS011;44465;53.206;-6.106;2023-03-14T07:54:01;1.90;;;0.70;;
58685;SDS011;44465;53.206;-6.106;2023-03-14T07:56:27;1.38;;;0.70;;
58685;SDS011;44465;53.206;-6.106;2023-03-14T07:58:53;2.28;;;0.70;;
58685;SDS011;44465;53.206;-6.106;2023-03-14T08:01:19;0.88;;;0.60;;
58685;SDS011;44465;53.206;-6.106;2023-03-14T08:03:53;2.30;;;0.68;;
58685;SDS011;44465;53.206;-6.106;2023-03-14T08:06:21;0.60;;;0.50;;
58685;SDS011;44465;53.206;-6.106;2023-03-14T08:08:48;1.63;;;0.75;;
58685;SDS011;44465;53.206;-6.106;2023-03-14T08:11:20;2.20;;;0.93;;
58685;SDS011;44465;53.206;-6.106;2023-03-14T08:13:45;4.22;;;0.50;;
58685;SDS011;44465;53.206;-6.106;2023-03-14T08:16:18;2.28;;;0.80;;
58685;SDS011;44465;53.206;-6.106;2023-03-14T08:18:46;1.38;;;0.60;;
58685;SDS011;44465;53.206;-6.106;2023-03-14T08:21:12;0.77;;;0.40;;
58685;SDS011;44465;53.206;-6.106;2023-03-14T08:23:40;1.63;;;0.70;;
58685;SDS011;44465;53.206;-6.106;2023-03-14T08:26:05;3.20;;;0.70;;
58685;SDS011;44465;53.206;-6.106;2023-03-14T08:28:31;1.33;;;0.65;;
58685;SDS011;44465;53.206;-6.106;2023-03-14T08:30:58;1.40;;;0.60;;
58685;SDS011;44465;53.206;-6.106;2023-03-14T08:33:25;1.23;;;0.80;;
58685;SDS011;44465;53.206;-6.106;2023-03-14T08:35:53;2.92;;;0.88;;
58685;SDS011;44465;53.206;-6.106;2023-03-14T08:38:20;1.00;;;0.70;;
58685;SDS011;44465;53.206;-6.106;2023-03-14T08:40:46;1.40;;;0.68;;
58685;SDS011;44465;53.206;-6.106;2023-03-14T08:43:11;1.20;;;0.70;;
58685;SDS011;44465;53.206;-6.106;2023-03-14T08:45:37;1.55;;;0.77;;
58685;SDS011;44465;53.206;-6.106;2023-03-14T08:48:03;1.88;;;0.70;;
58685;SDS011;44465;53.206;-6.106;2023-03-14T08:50:29;2.60;;;0.60;;
58685;SDS011;44465;53.206;-6.106;2023-03-14T08:52:55;1.42;;;0.73;;
58685;SDS011;44465;53.206;-6.106;2023-03-14T08:55:23;2.53;;;0.80;;
58685;SDS011;44465;53.206;-6.106;2023-03-14T08:57:49;2.08;;;0.70;;
58685;SDS011;44465;53.206;-6.106;2023-03-14T09:00:16;1.35;;;0.82;;
58685;SDS011;44465;53.206;-6.106;2023-03-14T09:02:42;1.02;;;0.57;;
58685;SDS011;44465;53.206;-6.106;2023-03-14T09:05:08;1.27;;;0.65;;
58685;SDS011;44465;53.206;-6.106;2023-03-14T09:07:38;0.80;;;0.60;;
58685;SDS011;44465;53.206;-6.106;2023-03-14T09:10:06;2.63;;;0.65;;
58685;SDS011;44465;53.206;-6.106;2023-03-14T09:12:33;1.98;;;0.90;;
58685;SDS011;44465;53.206;-6.106;2023-03-14T09:14:59;3.22;;;0.65;;
58685;SDS011;44465;53.206;-6.106;2023-03-14T09:17:25;1.92;;;0.73;;
58685;SDS011;44465;53.206;-6.106;2023-03-14T09:19:51;2.08;;;0.60;;
58685;SDS011;44465;53.206;-6.106;2023-03-14T09:22:17;1.83;;;0.80;;
58685;SDS011;44465;53.206;-6.106;2023-03-14T09:24:55;1.55;;;0.75;;
58685;SDS011;44465;53.206;-6.106;2023-03-14T09:27:21;3.45;;;1.20;;
58685;SDS011;44465;53.206;-6.106;2023-03-14T09:29:50;8.95;;;1.77;;
58685;SDS011;44465;53.206;-6.106;2023-03-14T09:32:21;21.58;;;3.17;;
58685;SDS011;44465;53.206;-6.106;2023-03-14T09:34:47;18.67;;;2.65;;
58685;SDS011;44465;53.206;-6.106;2023-03-14T09:37:14;24.73;;;3.75;;
58685;SDS011;44465;53.206;-6.106;2023-03-14T09:39:41;22.85;;;2.85;;
58685;SDS011;44465;53.206;-6.106;2023-03-14T09:42:13;11.27;;;1.73;;
58685;SDS011;44465;53.206;-6.106;2023-03-14T09:45:03;14.75;;;2.75;;
58685;SDS011;44465;53.206;-6.106;2023-03-14T09:47:38;11.48;;;1.80;;
58685;SDS011;44465;53.206;-6.106;2023-03-14T09:50:13;8.75;;;1.77;;
58685;SDS011;44465;53.206;-6.106;2023-03-14T09:52:40;7.70;;;2.15;;
58685;SDS011;44465;53.206;-6.106;2023-03-14T09:55:12;12.75;;;2.00;;
58685;SDS011;44465;53.206;-6.106;2023-03-14T09:57:42;5.63;;;1.92;;
58685;SDS011;44465;53.206;-6.106;2023-03-14T10:00:18;9.98;;;1.55;;
58685;SDS011;44465;53.206;-6.106;2023-03-14T10:02:52;5.43;;;1.65;;
58685;SDS011;44465;53.206;-6.106;2023-03-14T10:05:25;4.88;;;1.70;;
58685;SDS011;44465;53.206;-6.106;2023-03-14T10:08:01;9.88;;;2.05;;
58685;SDS011;44465;53.206;-6.106;2023-03-14T10:10:27;8.38;;;1.45;;
58685;SDS011;44465;53.206;-6.106;2023-03-14T10:12:57;13.55;;;1.90;;
58685;SDS011;44465;53.206;-6.106;2023-03-14T10:15:38;7.47;;;2.60;;
58685;SDS011;44465;53.206;-6.106;2023-03-14T10:18:13;6.35;;;1.30;;
58685;SDS011;44465;53.206;-6.106;2023-03-14T10:23:33;5.15;;;1.48;;
58685;SDS011;44465;53.206;-6.106;2023-03-14T10:26:26;6.80;;;1.35;;
58685;SDS011;44465;53.206;-6.106;2023-03-14T10:29:11;7.15;;;1.33;;
58685;SDS011;44465;53.206;-6.106;2023-03-14T10:32:00;6.97;;;1.20;;
58685;SDS011;44465;53.206;-6.106;2023-03-14T10:34:45;3.45;;;1.15;;
58685;SDS011;44465;53.206;-6.106;2023-03-14T10:49:00;3.45;;;1.05;;
58685;SDS011;44465;53.206;-6.106;2023-03-14T10:55:29;1.88;;;0.88;;
58685;SDS011;44465;53.206;-6.106;2023-03-14T10:58:23;2.17;;;1.10;;
58685;SDS011;44465;53.206;-6.106;2023-03-14T11:35:49;33.05;;;3.97;;
58685;SDS011;44465;53.206;-6.106;2023-03-14T12:56:41;2.60;;;0.88;;
58685;SDS011;44465;53.206;-6.106;2023-03-14T13:02:30;4.30;;;1.10;;
58685;SDS011;44465;53.206;-6.106;2023-03-14T13:05:09;1.13;;;0.57;;
58685;SDS011;44465;53.206;-6.106;2023-03-14T13:10:19;2.22;;;0.80;;
58685;SDS011;44465;53.206;-6.106;2023-03-14T13:15:45;3.45;;;0.82;;
58685;SDS011;44465;53.206;-6.106;2023-03-14T13:18:14;3.50;;;0.80;;
58685;SDS011;44465;53.206;-6.106;2023-03-14T13:20:44;2.13;;;0.68;;
58685;SDS011;44465;53.206;-6.106;2023-03-14T13:23:33;2.70;;;0.73;;
58685;SDS011;44465;53.206;-6.106;2023-03-14T13:26:01;2.40;;;0.80;;
58685;SDS011;44465;53.206;-6.106;2023-03-14T13:28:29;1.60;;;0.60;;
58685;SDS011;44465;53.206;-6.106;2023-03-14T13:31:03;2.90;;;0.80;;
58685;SDS011;44465;53.206;-6.106;2023-03-14T13:33:30;1.08;;;0.70;;
58685;SDS011;44465;53.206;-6.106;2023-03-14T13:36:03;1.55;;;0.75;;
58685;SDS011;44465;53.206;-6.106;2023-03-14T13:38:34;1.35;;;0.77;;
58685;SDS011;44465;53.206;-6.106;2023-03-14T13:41:05;4.38;;;0.88;;
58685;SDS011;44465;53.206;-6.106;2023-03-14T13:43:41;1.48;;;0.50;;
58685;SDS011;44465;53.206;-6.106;2023-03-14T13:46:13;1.25;;;0.90;;
58685;SDS011;44465;53.206;-6.106;2023-03-14T13:49:05;3.08;;;0.90;;
58685;SDS011;44465;53.206;-6.106;2023-03-14T13:51:36;3.05;;;1.02;;
58685;SDS011;44465;53.206;-6.106;2023-03-14T13:54:16;6.38;;;1.40;;
58685;SDS011;44465;53.206;-6.106;2023-03-14T13:56:44;1.95;;;1.02;;
58685;SDS011;44465;53.206;-6.106;2023-03-14T13:59:21;2.67;;;1.03;;
58685;SDS011;44465;53.206;-6.106;2023-03-14T14:01:50;0.73;;;0.57;;
58685;SDS011;44465;53.206;-6.106;2023-03-14T14:04:37;2.47;;;0.90;;
58685;SDS011;44465;53.206;-6.106;2023-03-14T14:10:50;1.23;;;0.90;;
58685;SDS011;44465;53.206;-6.106;2023-03-14T14:13:19;3.60;;;1.08;;
58685;SDS011;44465;53.206;-6.106;2023-03-14T14:15:50;6.10;;;1.20;;
58685;SDS011;44465;53.206;-6.106;2023-03-14T14:18:43;3.75;;;1.25;;
58685;SDS011;44465;53.206;-6.106;2023-03-14T14:21:09;3.72;;;1.00;;
58685;SDS011;44465;53.206;-6.106;2023-03-14T14:31:32;2.80;;;0.77;;
58685;SDS011;44465;53.206;-6.106;2023-03-14T14:34:01;0.95;;;0.52;;
58685;SDS011;44465;53.206;-6.106;2023-03-14T14:39:35;0.70;;;0.50;;
58685;SDS011;44465;53.206;-6.106;2023-03-14T14:42:12;5.55;;;1.00;;
58685;SDS011;44465;53.206;-6.106;2023-03-14T23:40:57;5.75;;;2.33;;
58685;SDS011;44465;53.206;-6.106;2023-03-14T23:43:34;3.55;;;1.98;;
58685;SDS011;44465;53.206;-6.106;2023-03-14T23:46:06;3.38;;;2.10;;
58685;SDS011;44465;53.206;-6.106;2023-03-14T23:48:31;5.90;;;2.08;;
58685;SDS011;44465;53.206;-6.106;2023-03-14T23:50:58;12.05;;;2.80;;
58685;SDS011;44465;53.206;-6.106;2023-03-14T23:53:26;5.22;;;2.30;;
58685;SDS011;44465;53.206;-6.106;2023-03-14T23:55:54;10.30;;;2.70;;
58685;SDS011;44465;53.206;-6.106;2023-03-14T23:58:20;4.82;;;1.90;;
